Time;durP1;ratioP1;P1;durP2;ratioP2;P2;SDS_P1;SDS_P2;PMS_P1;PMS_P2;Temp;Humidity;BMP_temperature;BMP_pressure;BME280_temperature;BME280_humidity;BME280_pressure;Samples;Min_cycle;Max_cycle;Signal;HPM_P1;HPM_P2
2023/11/02 00:01:07;;;;;;;;;3.00;2.00;;;;;15.23;91.65;97937.75;6221561;22;47105;-82
2023/11/02 00:03:35;;;;;;;;;1.00;1.00;;;;;15.29;93.88;97936.56;6248996;22;44772;-82
2023/11/02 00:06:21;;;;;;;;;1.00;1.00;;;;;15.48;92.99;97926.66;6221527;22;45373;-82
2023/11/02 00:09:25;;;;;;;;;1.00;1.00;;;;;15.40;92.24;97915.47;6221131;22;45385;-82
2023/11/02 00:11:56;;;;;;;;;0.25;0.25;;;;;15.33;92.80;97881.91;6217198;22;48203;-81
2023/11/02 00:14:23;;;;;;;;;1.00;1.00;;;;;15.27;92.05;97868.84;6220245;22;45285;-82
2023/11/02 00:16:51;;;;;;;;;1.75;1.75;;;;;15.20;91.37;97841.53;6219513;22;45151;-82
2023/11/02 00:20:00;;;;;;;;;3.00;1.50;;;;;15.43;92.45;97815.34;6247632;22;45685;-82
2023/11/02 00:22:28;;;;;;;;;2.00;1.00;;;;;15.21;97.52;97819.19;6220663;22;47198;-82
2023/11/02 00:24:57;;;;;;;;;1.50;1.50;;;;;15.17;94.55;97806.91;6248108;22;44740;-83
2023/11/02 00:27:22;;;;;;;;;1.00;1.00;;;;;14.96;96.00;97771.38;6220870;22;44876;-83
2023/11/02 00:29:48;;;;;;;;;1.25;0.75;;;;;14.92;97.11;97776.00;6219989;22;45313;-82
2023/11/02 00:32:14;;;;;;;;;1.25;1.25;;;;;14.79;100.00;97734.78;6220029;22;47039;-82
2023/11/02 00:34:40;;;;;;;;;1.25;0.25;;;;;14.75;100.00;97706.47;6218906;22;45336;-83
2023/11/02 00:37:06;;;;;;;;;2.50;1.75;;;;;14.87;100.00;97727.22;6245221;22;44798;-82
2023/11/02 00:39:31;;;;;;;;;1.00;1.00;;;;;14.71;100.00;97683.50;6242364;22;45348;-82
2023/11/02 00:41:58;;;;;;;;;3.75;3.00;;;;;14.76;100.00;97682.28;6219814;22;47060;-82
2023/11/02 00:44:30;;;;;;;;;2.75;1.00;;;;;14.93;100.00;97625.22;6246650;22;45339;-83
2023/11/02 00:46:57;;;;;;;;;1.50;1.00;;;;;14.66;100.00;97568.69;6219349;22;45344;-83
2023/11/02 00:49:23;;;;;;;;;1.50;1.50;;;;;14.62;100.00;97547.56;6219812;22;45445;-82
2023/11/02 00:51:55;;;;;;;;;0.50;0.50;;;;;14.71;100.00;97517.66;6247834;22;45682;-83
2023/11/02 00:54:55;;;;;;;;;1.00;1.00;;;;;14.79;100.00;97598.34;6220212;22;45328;-82
2023/11/02 00:57:27;;;;;;;;;1.25;1.25;;;;;14.59;100.00;97540.56;6219932;22;45403;-82
2023/11/02 00:59:55;;;;;;;;;0.75;0.75;;;;;14.64;100.00;97532.28;6247942;22;45296;-82
2023/11/02 01:02:21;;;;;;;;;1.00;1.00;;;;;14.50;100.00;97493.78;6222116;22;45418;-82
2023/11/02 01:04:54;;;;;;;;;2.00;0.75;;;;;14.67;100.00;97393.91;6223041;22;45312;-82
2023/11/02 01:07:20;;;;;;;;;3.25;1.75;;;;;14.54;98.93;97375.00;6250819;22;45501;-83
2023/11/02 01:09:54;;;;;;;;;1.75;1.00;;;;;14.73;100.00;97348.09;6248050;22;45740;-83
2023/11/02 01:12:27;;;;;;;;;0.75;0.75;;;;;14.79;98.88;97283.53;6219681;22;47043;-82
2023/11/02 01:14:53;;;;;;;;;1.25;1.25;;;;;14.60;98.70;97257.03;6219013;22;45146;-83
2023/11/02 01:17:37;;;;;;;;;0.00;0.00;;;;;14.80;97.78;97266.56;6247358;22;45197;-83
2023/11/02 01:20:05;;;;;;;;;3.00;1.50;;;;;14.65;97.62;97304.88;6220328;22;45031;-83
2023/11/02 01:22:34;;;;;;;;;2.00;0.75;;;;;14.67;97.25;97324.38;6247326;22;46378;-83
2023/11/02 01:25:11;;;;;;;;;1.00;1.00;;;;;14.90;97.10;97323.03;6220203;22;44877;-82
2023/11/02 01:27:37;;;;;;;;;1.25;1.25;;;;;14.75;97.12;97291.84;6220134;22;45660;-83
2023/11/02 01:30:09;;;;;;;;;1.50;0.75;;;;;14.88;96.61;97302.69;6192860;22;45022;-83
2023/11/02 01:32:35;;;;;;;;;1.00;1.00;;;;;14.65;97.83;97336.97;6247153;22;45392;-82
2023/11/02 01:35:00;;;;;;;;;0.50;0.50;;;;;14.62;97.35;97296.16;6219959;22;45578;-83
2023/11/02 01:37:28;;;;;;;;;0.75;0.75;;;;;14.88;97.62;97281.28;6219867;22;44853;-83
2023/11/02 01:40:30;;;;;;;;;0.75;0.75;;;;;14.94;97.04;97260.38;6246441;22;45441;-82
2023/11/02 01:42:58;;;;;;;;;0.00;0.00;;;;;14.86;97.40;97245.72;6220941;22;46949;-82
2023/11/02 01:45:26;;;;;;;;;1.00;1.00;;;;;14.93;97.16;97206.97;6220012;22;45281;-82
2023/11/02 01:47:58;;;;;;;;;0.25;0.25;;;;;15.07;96.96;97243.56;6220775;22;45297;-82
2023/11/02 01:50:30;;;;;;;;;1.00;1.00;;;;;15.10;96.98;97214.81;6247448;22;44791;-82
2023/11/02 01:53:33;;;;;;;;;0.50;0.50;;;;;15.26;95.71;97197.81;6246566;22;45086;-81
2023/11/02 01:56:11;;;;;;;;;0.00;0.00;;;;;15.25;95.57;97180.03;6219828;22;45423;-81
2023/11/02 01:58:46;;;;;;;;;0.00;0.00;;;;;15.36;95.14;97186.44;6247386;22;45350;-82
2023/11/02 02:01:32;;;;;;;;;0.00;0.00;;;;;15.39;94.57;97205.00;6256290;22;45385;-80
2023/11/02 02:04:17;;;;;;;;;1.00;1.00;;;;;15.17;94.92;97181.38;6266906;22;45106;-80
2023/11/02 02:07:01;;;;;;;;;0.00;0.00;;;;;15.23;95.01;97187.28;6242301;22;45156;-81
2023/11/02 02:09:45;;;;;;;;;1.00;1.00;;;;;15.28;94.53;97174.50;6267150;22;44901;-82
2023/11/02 02:12:32;;;;;;;;;1.00;1.00;;;;;15.61;93.94;97147.41;6268234;22;44743;-81
2023/11/02 02:15:20;;;;;;;;;0.00;0.00;;;;;15.60;93.47;97113.56;6270734;22;45024;-81
2023/11/02 02:18:06;;;;;;;;;0.00;0.00;;;;;15.63;93.50;97083.03;6243549;22;44887;-82
2023/11/02 02:20:33;;;;;;;;;0.75;0.50;;;;;15.48;93.13;97063.47;6243872;22;44980;-82
2023/11/02 02:23:06;;;;;;;;;0.00;0.00;;;;;15.69;92.58;97099.53;6244150;22;44792;-81
2023/11/02 02:25:57;;;;;;;;;1.00;1.00;;;;;15.88;91.43;97060.88;6243624;22;47163;-81
2023/11/02 02:28:47;;;;;;;;;0.75;0.75;;;;;15.99;91.53;97144.09;6270641;22;44752;-81
2023/11/02 02:31:24;;;;;;;;;0.00;0.00;;;;;16.06;91.58;97126.66;6269471;22;44822;-81
2023/11/02 02:34:32;;;;;;;;;0.50;0.50;;;;;16.00;90.82;97108.31;6243673;22;44869;-81
2023/11/02 02:36:57;;;;;;;;;0.00;0.00;;;;;15.79;91.36;97087.34;6180235;22;47379;-82
2023/11/02 02:39:28;;;;;;;;;0.00;0.00;;;;;15.99;91.55;97101.22;6207066;22;44746;-82
2023/11/02 02:42:00;;;;;;;;;1.50;1.50;;;;;16.02;90.87;97073.34;6182276;22;45009;-82
2023/11/02 02:44:30;;;;;;;;;1.00;0.00;;;;;15.98;90.71;97073.56;6204564;22;44845;-81
2023/11/02 02:46:58;;;;;;;;;0.00;0.00;;;;;15.88;90.13;97079.66;6204995;22;45164;-81
2023/11/02 02:49:28;;;;;;;;;0.00;0.00;;;;;16.04;90.10;97044.63;6205316;22;44693;-83
2023/11/02 02:52:00;;;;;;;;;3.25;1.00;;;;;16.07;89.45;97061.34;6182086;22;44834;-81
2023/11/02 02:54:27;;;;;;;;;0.00;0.00;;;;;15.99;88.38;97061.00;6181649;22;45019;-81
2023/11/02 02:56:58;;;;;;;;;1.25;1.25;;;;;16.03;87.71;97033.03;6204752;22;45523;-82
2023/11/02 02:59:25;;;;;;;;;0.25;0.25;;;;;16.01;87.24;97045.69;6207082;22;44727;-80
2023/11/02 03:01:54;;;;;;;;;1.00;1.00;;;;;15.98;86.57;97051.28;6181535;22;44851;-80
2023/11/02 03:04:26;;;;;;;;;2.00;0.25;;;;;16.13;86.89;97033.28;6207605;22;44793;-81
2023/11/02 03:06:54;;;;;;;;;0.00;0.00;;;;;15.97;86.22;97038.81;6181489;22;45707;-80
2023/11/02 03:09:21;;;;;;;;;2.00;0.00;;;;;16.00;86.40;97034.13;6181330;22;45402;-80
2023/11/02 03:11:53;;;;;;;;;0.00;0.00;;;;;16.12;84.57;97026.22;6156490;22;44681;-81
2023/11/02 03:14:21;;;;;;;;;2.00;0.50;;;;;16.00;84.73;97006.47;6257608;22;44906;-81
2023/11/02 03:16:47;;;;;;;;;0.00;0.00;;;;;16.01;83.57;97000.13;6243479;22;47079;-81
2023/11/02 03:19:32;;;;;;;;;1.00;1.00;;;;;16.11;83.28;96984.28;6270297;22;44903;-81
2023/11/02 03:21:57;;;;;;;;;1.75;0.00;;;;;16.00;82.83;96995.75;6243724;22;44786;-81
2023/11/02 03:24:37;;;;;;;;;0.00;0.00;;;;;16.27;81.99;97003.72;6270480;22;44829;-81
2023/11/02 03:27:06;;;;;;;;;0.00;0.00;;;;;16.24;81.76;97016.44;6243061;22;47224;-80
2023/11/02 03:29:52;;;;;;;;;0.75;0.00;;;;;15.96;81.04;97010.31;6243293;22;44951;-81
2023/11/02 03:32:36;;;;;;;;;0.50;0.00;;;;;15.98;80.59;96981.59;6236984;22;44903;-81
2023/11/02 03:35:14;;;;;;;;;0.00;0.00;;;;;16.18;81.14;97005.22;6238175;22;44739;-80
2023/11/02 03:38:18;;;;;;;;;1.00;1.00;;;;;16.34;78.32;97029.16;6236793;22;45097;-81
2023/11/02 03:40:59;;;;;;;;;0.25;0.25;;;;;16.44;78.82;97028.50;6236753;22;44794;-81
2023/11/02 03:43:33;;;;;;;;;0.00;0.00;;;;;16.41;79.82;97021.53;6239405;22;44791;-81
2023/11/02 03:46:12;;;;;;;;;1.00;0.00;;;;;16.26;79.92;97028.81;6238704;22;44773;-82
2023/11/02 03:48:50;;;;;;;;;1.00;1.00;;;;;16.49;79.60;97042.47;6237936;22;47585;-81
2023/11/02 03:51:34;;;;;;;;;0.25;0.25;;;;;16.26;80.66;97023.44;6238896;22;44720;-81
2023/11/02 03:54:29;;;;;;;;;1.00;0.00;;;;;16.44;82.58;96989.16;6238283;22;44788;-81
2023/11/02 03:56:55;;;;;;;;;0.50;0.00;;;;;16.14;84.41;97002.84;6238551;22;44756;-81
2023/11/02 03:59:49;;;;;;;;;3.00;2.00;;;;;16.18;87.45;97012.41;6238851;22;45895;-80
2023/11/02 04:02:31;;;;;;;;;2.00;1.00;;;;;16.05;88.69;97015.03;6238412;22;45230;-81
2023/11/02 04:05:16;;;;;;;;;1.25;0.00;;;;;15.94;91.16;97034.53;6239549;22;45238;-81
2023/11/02 04:07:49;;;;;;;;;1.00;1.00;;;;;15.88;93.93;97056.38;6240018;22;44874;-81
2023/11/02 04:10:22;;;;;;;;;0.50;0.50;;;;;15.68;100.00;97036.22;6239289;22;45210;-80
2023/11/02 04:13:06;;;;;;;;;1.25;0.75;;;;;15.42;100.00;97008.47;6239201;22;44938;-80
2023/11/02 04:15:31;;;;;;;;;0.00;0.00;;;;;15.30;100.00;97004.78;6237715;22;44843;-80
2023/11/02 04:18:00;;;;;;;;;1.00;1.00;;;;;15.47;100.00;97000.13;6239582;22;44843;-81
2023/11/02 04:20:26;;;;;;;;;0.00;0.00;;;;;15.29;100.00;96970.97;6237586;22;47125;-81
2023/11/02 04:22:52;;;;;;;;;0.75;0.00;;;;;15.23;100.00;96978.50;6239203;22;44793;-80
2023/11/02 04:25:20;;;;;;;;;0.00;0.00;;;;;15.19;100.00;96975.19;6238540;22;45052;-80
2023/11/02 04:27:46;;;;;;;;;0.00;0.00;;;;;15.13;100.00;96978.28;6237728;22;44866;-80
2023/11/02 04:30:12;;;;;;;;;0.00;0.00;;;;;15.19;100.00;96978.72;6237971;22;46471;-82
2023/11/02 04:32:37;;;;;;;;;0.00;0.00;;;;;15.03;100.00;96963.75;6268749;22;44799;-81
2023/11/02 04:35:05;;;;;;;;;1.00;0.00;;;;;15.02;100.00;96943.31;6241638;22;44935;-80
2023/11/02 04:37:31;;;;;;;;;0.00;0.00;;;;;15.05;100.00;96964.50;6233208;22;45196;-80
2023/11/02 04:39:57;;;;;;;;;0.00;0.00;;;;;14.92;100.00;96967.97;6232495;22;46852;-79
2023/11/02 04:42:22;;;;;;;;;0.00;0.00;;;;;14.93;100.00;96953.66;6207327;22;44818;-81
2023/11/02 04:44:50;;;;;;;;;1.50;0.00;;;;;14.91;100.00;96958.25;6206415;22;44964;-80
2023/11/02 04:47:15;;;;;;;;;0.00;0.00;;;;;14.89;100.00;96961.97;6209273;22;45011;-81
2023/11/02 04:49:40;;;;;;;;;1.50;1.50;;;;;14.85;100.00;96963.97;6206182;22;45278;-80
2023/11/02 04:52:06;;;;;;;;;0.00;0.00;;;;;14.94;100.00;96974.06;6206330;22;44870;-80
2023/11/02 04:54:33;;;;;;;;;1.50;0.00;;;;;15.04;100.00;96973.50;6205944;22;45236;-80
2023/11/02 04:57:00;;;;;;;;;1.25;1.25;;;;;15.16;100.00;96962.00;6232886;22;45020;-80
2023/11/02 04:59:26;;;;;;;;;1.00;0.00;;;;;15.11;100.00;96964.13;6232425;22;47386;-80
2023/11/02 05:01:51;;;;;;;;;2.00;0.00;;;;;15.09;100.00;96977.59;6208478;22;44697;-80
2023/11/02 05:04:20;;;;;;;;;2.00;2.00;;;;;15.12;100.00;96953.31;6232894;22;44764;-81
2023/11/02 05:06:52;;;;;;;;;4.33;2.00;;;;;15.24;100.00;96950.78;6232558;22;44914;-81
2023/11/02 05:09:17;;;;;;;;;3.25;2.00;;;;;15.10;100.00;96979.31;6208505;22;45820;-81
2023/11/02 05:11:42;;;;;;;;;2.67;2.67;;;;;15.16;100.00;96972.72;6208847;22;44934;-81
2023/11/02 05:14:08;;;;;;;;;1.00;1.00;;;;;15.19;100.00;96981.41;6208940;22;44853;-81
2023/11/02 05:16:33;;;;;;;;;2.67;2.67;;;;;15.12;100.00;96965.84;6233479;22;44753;-80
2023/11/02 05:18:59;;;;;;;;;4.00;1.00;;;;;15.08;100.00;96953.63;6206354;22;45219;-80
2023/11/02 05:21:24;;;;;;;;;2.50;1.00;;;;;15.09;100.00;96971.38;6208962;22;44858;-81
2023/11/02 05:27:12;;;;;;;;;0.67;0.33;;;;;15.11;100.00;96935.53;6208830;22;44780;-81
2023/11/02 05:29:38;;;;;;;;;1.75;1.25;;;;;15.11;97.25;96937.38;6208320;22;45240;-81
2023/11/02 05:32:03;;;;;;;;;3.00;1.00;;;;;15.12;89.15;96923.00;6208414;22;44800;-80
2023/11/02 05:34:29;;;;;;;;;1.00;1.00;;;;;15.12;88.47;96917.66;6208515;22;44929;-81
2023/11/02 05:36:54;;;;;;;;;1.00;1.00;;;;;15.11;85.54;96938.22;6207784;22;44927;-80
2023/11/02 05:39:20;;;;;;;;;1.00;1.00;;;;;14.94;85.56;96901.84;6207148;22;46802;-80
2023/11/02 05:41:45;;;;;;;;;3.33;0.67;;;;;15.18;84.18;96917.25;6207461;22;44745;-80
2023/11/02 05:44:10;;;;;;;;;3.00;1.33;;;;;15.17;84.85;96931.63;6207631;22;45295;-81
2023/11/02 05:49:58;;;;;;;;;1.67;1.67;;;;;15.19;82.91;96921.66;6207873;22;44911;-81
2023/11/02 05:52:24;;;;;;;;;2.00;2.00;;;;;15.23;82.82;96924.97;6208007;22;44867;-81
2023/11/02 05:54:49;;;;;;;;;2.75;1.50;;;;;15.29;83.77;96941.50;6208419;22;44893;-81
2023/11/02 05:57:14;;;;;;;;;3.25;1.25;;;;;15.30;82.40;96937.84;6205903;22;44753;-81
2023/11/02 06:03:03;;;;;;;;;2.00;2.00;;;;;15.36;82.53;96912.50;6208413;22;44792;-81
2023/11/02 06:05:28;;;;;;;;;2.50;1.00;;;;;15.36;80.01;96934.78;6207453;22;45175;-81
2023/11/02 06:07:54;;;;;;;;;5.75;2.25;;;;;15.40;79.90;96922.03;6208547;22;45160;-80
2023/11/02 06:10:20;;;;;;;;;3.00;3.00;;;;;15.39;79.88;96899.78;6207983;22;45299;-81
2023/11/02 06:12:46;;;;;;;;;3.00;3.00;;;;;15.56;78.98;96925.41;6232518;22;44933;-80
2023/11/02 06:15:12;;;;;;;;;3.50;1.75;;;;;15.38;79.42;96919.47;6206816;22;45076;-81
2023/11/02 06:17:38;;;;;;;;;1.00;1.00;;;;;15.38;77.86;96906.06;6232543;22;44819;-81
2023/11/02 06:20:06;;;;;;;;;3.00;3.00;;;;;15.42;77.93;96914.78;6207693;22;44896;-81
2023/11/02 06:22:32;;;;;;;;;4.67;3.67;;;;;15.39;76.45;96931.03;6232265;22;44999;-81
2023/11/02 06:24:57;;;;;;;;;7.33;4.67;;;;;15.33;76.75;96908.22;6206033;22;44793;-80
2023/11/02 06:27:22;;;;;;;;;2.33;2.00;;;;;15.35;75.53;96919.69;6206299;22;44876;-80
2023/11/02 06:29:48;;;;;;;;;3.00;1.33;;;;;15.36;76.63;96925.88;6208066;22;45219;-80
2023/11/02 06:32:13;;;;;;;;;4.00;2.00;;;;;15.37;75.45;96928.47;6207978;22;44856;-81
2023/11/02 06:34:39;;;;;;;;;2.00;2.00;;;;;15.45;74.90;96940.47;6205637;22;44779;-79
2023/11/02 06:37:11;;;;;;;;;1.33;1.33;;;;;15.54;74.49;96947.91;6206902;22;44899;-80
2023/11/02 06:39:37;;;;;;;;;5.00;2.00;;;;;15.55;73.54;96957.66;6204511;22;45364;-80
2023/11/02 06:42:04;;;;;;;;;5.00;2.00;;;;;15.65;73.57;96953.38;6206040;22;45247;-81
2023/11/02 06:44:29;;;;;;;;;3.25;2.25;;;;;15.52;73.83;96925.72;6231401;22;44953;-83
2023/11/02 06:46:55;;;;;;;;;1.00;1.00;;;;;15.57;73.25;96961.06;6207829;22;44941;-81
2023/11/02 06:49:21;;;;;;;;;0.50;0.25;;;;;15.51;72.07;96945.41;6206292;22;47115;-82
2023/11/02 06:51:47;;;;;;;;;2.00;2.00;;;;;15.52;72.75;96947.16;6206903;22;44717;-81
2023/11/02 06:54:12;;;;;;;;;5.00;0.75;;;;;15.60;73.01;96953.69;6205454;22;44760;-81
2023/11/02 06:56:38;;;;;;;;;4.75;0.00;;;;;15.60;71.92;96952.84;6233037;22;44854;-81
2023/11/02 06:59:03;;;;;;;;;4.25;1.25;;;;;15.64;73.14;96950.84;6209013;22;45363;-82
2023/11/02 07:01:29;;;;;;;;;2.75;1.75;;;;;15.71;72.96;96934.22;6209460;22;44809;-82
2023/11/02 07:03:55;;;;;;;;;0.50;0.50;;;;;15.70;72.42;96953.94;6232994;22;44790;-81
2023/11/02 07:06:20;;;;;;;;;3.00;1.75;;;;;15.68;72.17;96947.84;6233143;22;44915;-82
2023/11/02 07:08:46;;;;;;;;;4.33;2.00;;;;;15.82;71.38;96941.59;6209393;22;45471;-82
2023/11/02 07:11:18;;;;;;;;;8.75;2.00;;;;;15.78;70.06;96948.13;6206877;22;45027;-82
2023/11/02 07:26:39;;;;;;;;;1.00;1.00;;;;;15.72;71.11;96970.81;6165596;22;46471;-80
2023/11/02 07:29:05;;;;;;;;;1.50;1.25;;;;;15.65;71.77;96977.50;6210889;22;46767;-81
2023/11/02 07:31:30;;;;;;;;;4.50;2.75;;;;;15.60;71.87;96956.38;6237159;22;44801;-80
2023/11/02 08:04:59;;;;;;;;;2.00;2.00;;;;;15.50;73.75;96976.72;6129465;22;46392;-81
2023/11/02 08:51:32;;;;;;;;;2.00;2.00;;;;;15.75;67.49;96959.91;6220454;22;45390;-84
2023/11/02 08:54:04;;;;;;;;;1.00;1.00;;;;;15.74;68.16;96963.53;6194913;22;45397;-84
2023/11/02 08:56:36;;;;;;;;;3.00;1.33;;;;;15.99;68.14;96984.16;6206660;22;45070;-86
2023/11/02 09:02:04;;;;;;;;;3.00;2.00;;;;;16.22;66.43;97031.78;6219425;22;46057;-83
2023/11/02 09:04:32;;;;;;;;;2.00;1.00;;;;;15.99;65.95;97034.22;6248047;22;45277;-82
2023/11/02 09:07:29;;;;;;;;;;;;;;;;;;;;;
2023/11/02 09:10:20;;;;;;;;;0.00;0.00;;;;;15.90;64.17;97024.13;6260809;22;65000;-83
2023/11/02 09:12:58;;;;;;;;;;;;;;;;;;;;;
2023/11/02 09:15:24;;;;;;;;;1.00;0.00;;;;;15.88;63.32;96980.50;6255814;22;71386;-82
2023/11/02 09:28:31;;;;;;;;;1.50;0.25;;;;;16.41;61.82;97042.97;6248205;22;45787;-82
2023/11/02 09:30:56;;;;;;;;;0.00;0.00;;;;;16.15;61.26;97032.22;6281402;22;45392;-83
2023/11/02 09:33:24;;;;;;;;;1.00;0.00;;;;;16.00;60.12;97025.22;6280706;22;45344;-81
2023/11/02 09:36:00;;;;;;;;;1.00;1.00;;;;;16.45;61.19;97047.16;6281964;22;45321;-80
2023/11/02 09:38:26;;;;;;;;;1.00;1.00;;;;;16.14;61.05;97046.59;6253964;22;45417;-81
2023/11/02 09:41:09;;;;;;;;;1.33;1.00;;;;;16.32;60.74;97070.41;6252944;22;45274;-81
2023/11/02 09:43:35;;;;;;;;;0.75;0.75;;;;;16.12;61.01;97031.59;6278568;22;47418;-82
2023/11/02 09:46:04;;;;;;;;;2.50;0.50;;;;;16.32;61.16;97073.09;6282142;22;45332;-81
2023/11/02 09:48:30;;;;;;;;;3.00;1.67;;;;;16.31;61.75;97057.97;6253788;22;45458;-81
2023/11/02 09:50:58;;;;;;;;;1.00;1.00;;;;;16.27;60.98;97030.50;6281057;22;45391;-82
2023/11/02 09:53:27;;;;;;;;;1.00;1.00;;;;;16.22;61.51;97066.63;6257602;22;47913;-83
2023/11/02 09:56:03;;;;;;;;;1.00;0.00;;;;;16.12;61.35;97029.75;6216909;22;46001;-85
2023/11/02 09:58:39;;;;;;;;;0.50;0.00;;;;;16.40;61.47;97027.84;6218165;22;44803;-82
2023/11/02 10:03:50;;;;;;;;;2.00;2.00;;;;;16.38;61.20;97081.59;6154231;22;45338;-82
2023/11/02 10:06:16;;;;;;;;;2.67;1.67;;;;;16.40;60.94;97086.84;6165529;23;44835;-82
2023/11/02 10:08:49;;;;;;;;;1.67;1.67;;;;;16.58;60.54;97082.91;6160421;23;45716;-83
2023/11/02 10:11:18;;;;;;;;;0.33;0.33;;;;;16.58;61.25;97065.94;6132967;23;45562;-83
2023/11/02 10:17:06;;;;;;;;;3.00;2.00;;;;;16.59;59.23;97130.22;6161043;23;45501;-83
2023/11/02 10:19:32;;;;;;;;;1.00;1.00;;;;;16.68;59.90;97098.38;6133373;23;44884;-84
2023/11/02 10:21:59;;;;;;;;;1.67;1.00;;;;;16.56;60.17;97067.88;6159637;23;44796;-82
2023/11/02 10:24:53;;;;;;;;;2.00;2.00;;;;;17.04;59.45;97112.91;6160791;23;45191;-83
2023/11/02 10:27:28;;;;;;;;;2.00;1.00;;;;;16.90;60.18;97127.28;6141256;23;44824;-82
2023/11/02 10:29:59;;;;;;;;;3.00;3.00;;;;;16.98;60.35;97112.34;6134340;22;44766;-82
2023/11/02 10:32:25;;;;;;;;;0.33;0.33;;;;;16.69;58.25;97079.47;6161688;22;45298;-83
2023/11/02 10:35:00;;;;;;;;;0.33;0.33;;;;;16.83;58.10;97065.13;6162485;23;45334;-83
2023/11/02 10:40:50;;;;;;;;;2.00;2.00;;;;;16.75;59.58;97075.53;6164952;23;45306;-83
2023/11/02 10:43:27;;;;;;;;;1.00;1.00;;;;;17.06;58.88;97127.06;6137938;23;44824;-81
2023/11/02 10:45:54;;;;;;;;;1.00;1.00;;;;;17.07;57.96;97104.66;6138007;23;45581;-82
2023/11/02 10:48:20;;;;;;;;;0.00;0.00;;;;;17.16;59.02;97106.66;6140945;23;45019;-82
2023/11/02 10:56:50;;;;;;;;;;;;;;;;;;;;;
2023/11/02 11:09:43;;;;;;;;;2.00;1.25;;;;;17.47;58.09;97123.28;6105034;22;47197;-83
2023/11/02 11:12:09;;;;;;;;;1.00;1.00;;;;;17.48;56.44;97115.09;6192257;22;44816;-83
2023/11/02 11:14:37;;;;;;;;;1.00;0.00;;;;;17.48;54.75;97138.44;6189317;23;45368;-81
2023/11/02 11:17:14;;;;;;;;;0.25;0.00;;;;;17.53;56.20;97109.38;6170108;22;45480;-81
2023/11/02 11:19:41;;;;;;;;;3.00;0.00;;;;;17.27;55.17;97141.69;6194997;22;44869;-81
2023/11/02 11:22:25;;;;;;;;;1.25;1.00;;;;;17.74;54.62;97160.75;6166990;22;44808;-83
2023/11/02 11:25:06;;;;;;;;;0.00;0.00;;;;;17.71;54.75;97156.41;6190617;23;44844;-81
2023/11/02 11:27:47;;;;;;;;;1.75;0.50;;;;;17.89;55.60;97167.69;6191735;23;47658;-83
2023/11/02 11:30:36;;;;;;;;;0.00;0.00;;;;;18.04;56.00;97176.50;6193005;23;44852;-80
2023/11/02 11:36:25;;;;;;;;;0.50;0.25;;;;;18.11;54.62;97161.59;6223455;22;45475;-82
2023/11/02 11:39:13;;;;;;;;;2.00;1.25;;;;;18.23;55.53;97184.06;6230204;22;45556;-81
2023/11/02 11:41:51;;;;;;;;;3.50;2.00;;;;;18.44;53.00;97146.63;6224174;22;44891;-81
2023/11/02 11:44:23;;;;;;;;;4.25;1.50;;;;;18.27;53.19;97157.78;6223377;22;45080;-81
2023/11/02 11:47:07;;;;;;;;;2.00;2.00;;;;;18.52;54.61;97149.59;6223830;22;44768;-81
2023/11/02 11:49:36;;;;;;;;;3.00;1.00;;;;;18.27;53.77;97171.25;6221949;22;46980;-81
2023/11/02 11:52:25;;;;;;;;;0.75;0.00;;;;;18.24;53.51;97133.78;6223876;22;45206;-81
2023/11/02 11:54:52;;;;;;;;;2.00;1.00;;;;;18.01;52.72;97146.28;6220961;22;45315;-80
2023/11/02 11:58:09;;;;;;;;;2.00;1.00;;;;;18.28;52.75;97183.69;6197489;22;44801;-81
2023/11/02 12:00:55;;;;;;;;;0.00;0.00;;;;;18.18;53.83;97168.25;6189354;22;47173;-80
2023/11/02 12:03:36;;;;;;;;;3.00;2.00;;;;;18.32;54.37;97161.84;6190765;22;45448;-80
2023/11/02 12:06:03;;;;;;;;;3.50;2.00;;;;;17.91;53.37;97146.94;6196899;22;44780;-80
2023/11/02 12:08:31;;;;;;;;;1.00;1.00;;;;;18.05;54.03;97145.94;6196817;22;44869;-82
2023/11/02 12:10:58;;;;;;;;;0.25;0.25;;;;;17.86;53.38;97135.69;6217252;22;47387;-84
2023/11/02 12:29:07;;;;;;;;;0.75;0.00;;;;;18.33;51.21;97160.00;6240571;22;46534;-81
2023/11/02 12:31:44;;;;;;;;;1.75;0.00;;;;;18.33;51.77;97170.78;6292415;22;45492;-81
2023/11/02 12:34:13;;;;;;;;;1.00;1.00;;;;;18.09;51.66;97163.53;6294207;22;44688;-82
2023/11/02 12:36:39;;;;;;;;;0.00;0.00;;;;;18.29;50.85;97202.41;6297294;22;44825;-81
2023/11/02 12:39:13;;;;;;;;;2.00;1.50;;;;;18.32;51.24;97177.13;6267833;22;44809;-80
2023/11/02 12:41:47;;;;;;;;;0.00;0.00;;;;;18.25;51.93;97167.81;6291051;22;46127;-80
2023/11/02 12:44:15;;;;;;;;;1.67;1.00;;;;;18.50;51.36;97207.16;6268104;22;44783;-80
2023/11/02 12:46:43;;;;;;;;;0.50;0.50;;;;;18.58;50.86;97207.44;6293296;22;44832;-80
2023/11/02 12:49:30;;;;;;;;;0.67;0.67;;;;;18.86;50.86;97222.41;6292879;22;44797;-81
2023/11/02 12:52:09;;;;;;;;;1.00;1.00;;;;;18.83;49.89;97217.28;6293887;22;46726;-81
2023/11/02 12:54:42;;;;;;;;;1.00;1.00;;;;;18.72;50.31;97233.34;6272524;22;44863;-81
2023/11/02 12:57:23;;;;;;;;;1.00;1.00;;;;;18.63;49.46;97204.44;6219906;22;46480;-80
2023/11/02 12:59:51;;;;;;;;;2.00;0.00;;;;;18.50;49.90;97208.06;6264161;22;44856;-80
2023/11/02 13:04:59;;;;;;;;;0.75;0.75;;;;;18.46;50.42;97214.63;6281558;22;45013;-82
2023/11/02 13:07:31;;;;;;;;;0.00;0.00;;;;;18.60;51.26;97259.31;6206420;22;46532;-82
2023/11/02 13:10:15;;;;;;;;;0.00;0.00;;;;;18.77;51.52;97247.31;6271234;22;45160;-82
2023/11/02 13:12:58;;;;;;;;;1.00;0.00;;;;;18.68;51.00;97227.31;6218386;22;46639;-81
2023/11/02 13:26:41;;;;;;;;;1.00;0.00;;;;;18.84;50.97;97234.28;6268533;22;44849;-83
2023/11/02 13:29:10;;;;;;;;;0.50;0.50;;;;;18.54;50.08;97223.00;6267430;22;44827;-82
2023/11/02 13:31:42;;;;;;;;;1.00;1.00;;;;;18.74;50.17;97228.69;6235628;22;44852;-82
2023/11/02 13:34:08;;;;;;;;;0.00;0.00;;;;;18.53;50.97;97229.34;6239420;22;45516;-83
2023/11/02 13:36:34;;;;;;;;;1.25;0.00;;;;;18.68;51.05;97231.84;6238248;22;44808;-82
2023/11/02 13:44:10;;;;;;;;;1.25;1.25;;;;;18.64;49.95;97239.28;6165555;22;46643;-83
2023/11/02 13:46:36;;;;;;;;;1.50;1.50;;;;;18.66;50.96;97249.94;6194625;22;45224;-83
2023/11/02 13:49:01;;;;;;;;;1.25;0.25;;;;;18.63;50.14;97264.50;6235716;22;44826;-83
2023/11/02 13:51:36;;;;;;;;;2.00;1.00;;;;;18.55;50.32;97273.13;6218343;22;45087;-80
2023/11/02 13:54:09;;;;;;;;;0.50;0.50;;;;;18.86;50.67;97268.19;6268371;22;45066;-80
2023/11/02 13:56:35;;;;;;;;;2.25;1.25;;;;;18.65;50.76;97262.56;6296892;22;44920;-80
2023/11/02 13:59:00;;;;;;;;;1.00;1.00;;;;;18.63;50.14;97252.88;6267857;22;44875;-79
2023/11/02 14:01:25;;;;;;;;;3.00;1.00;;;;;18.67;49.69;97275.91;6269043;22;44878;-84
2023/11/02 14:03:52;;;;;;;;;0.00;0.00;;;;;18.53;49.92;97261.63;6270052;22;47337;-82
2023/11/02 14:06:19;;;;;;;;;4.00;1.00;;;;;18.68;50.00;97275.75;6298268;22;44832;-79
2023/11/02 14:08:44;;;;;;;;;2.00;2.00;;;;;18.74;49.92;97282.53;6288390;22;44743;-82
2023/11/02 14:11:13;;;;;;;;;1.50;1.50;;;;;18.68;49.91;97269.53;6273719;22;44890;-81
2023/11/02 14:13:39;;;;;;;;;0.00;0.00;;;;;18.61;50.06;97236.00;6299595;22;45573;-81
2023/11/02 14:16:06;;;;;;;;;1.50;1.50;;;;;18.71;49.99;97277.38;6271437;22;44886;-81
2023/11/02 14:18:32;;;;;;;;;1.50;0.00;;;;;18.70;49.91;97286.44;6301026;22;44867;-81
2023/11/02 14:23:26;;;;;;;;;1.25;1.25;;;;;18.75;50.15;97297.72;6265328;22;45179;-79
2023/11/02 14:25:52;;;;;;;;;1.00;1.00;;;;;18.77;50.74;97287.69;6235939;22;44871;-80
2023/11/02 14:28:18;;;;;;;;;1.00;0.50;;;;;18.61;50.04;97252.13;6264745;22;45133;-81
2023/11/02 14:30:44;;;;;;;;;1.75;1.00;;;;;18.59;49.15;97282.69;6237729;22;44959;-82
2023/11/02 14:33:16;;;;;;;;;0.00;0.00;;;;;18.77;49.54;97285.84;6262989;22;45246;-80
2023/11/02 14:35:42;;;;;;;;;0.50;0.50;;;;;18.44;48.67;97297.31;6266836;22;44780;-80
2023/11/02 14:38:12;;;;;;;;;2.25;0.25;;;;;18.48;49.82;97282.66;6269639;22;45155;-81
2023/11/02 14:40:38;;;;;;;;;0.50;0.50;;;;;18.20;49.88;97264.97;6265531;22;44868;-81
2023/11/02 14:43:04;;;;;;;;;0.00;0.00;;;;;18.17;49.18;97286.69;6235002;22;46457;-82
2023/11/02 14:45:43;;;;;;;;;;;;;;;;;;;;;
2023/11/02 14:48:10;;;;;;;;;1.00;1.00;;;;;17.94;49.87;97294.59;6266091;22;68128;-81
2023/11/02 14:50:40;;;;;;;;;3.00;2.00;;;;;18.10;49.40;97299.75;6269552;22;45288;-83
2023/11/02 14:53:24;;;;;;;;;4.00;1.50;;;;;17.92;50.23;97287.63;6271308;22;45190;-82
2023/11/02 14:55:52;;;;;;;;;1.00;1.00;;;;;17.78;49.18;97289.41;6235178;22;46722;-81